• Join FlightAware (Why Join?)
  • Login
  • US Flag 
02:24AM EDT


 

Airport Tracker/Info


-or-


 

Live Flight TrackerFlight Track Log ✈ AWE1940 ✈ 14-Oct-2013 ✈ KCLT - KALB

Flight Track Log - Related Links

Times and Time Zones

All times are in EDT time to prevent confusion due to time zone crossing. See the AWE1940 flight status page for this flight to view local times or setup timezone preferences in your user account.

Time Position Orientation Groundspeed Altitude Reporting Facility
EDT Latitude Longitude Course Direction KTS MPH feet Rate Location/Type
10:25PM 35.2328 -80.9392 74° East 173 199 1,700  Level Atlanta Center
10:26PM 35.2844 -80.9244 13° North 212 244 3,500 2,040 Climbing Atlanta Center
10:27PM 35.3011 -80.8475 75° East 260 299 6,100 2,640 Climbing Atlanta Center
10:28PM 35.2947 -80.7586 95° East 291 335 9,000 2,700 Climbing Atlanta Center
10:29PM 35.2942 -80.6619 90° East 285 328 11,600 2,040 Climbing Atlanta Center
10:30PM 35.7929 -80.4630 74° East  Level Estimated
10:30PM 35.3158 -80.5417 78° East 299 344 13,100  Level Atlanta Center
10:31PM 35.3478 -80.4206 72° East 336 387 15,400 2,160 Climbing Atlanta Center
10:32PM 35.3858 -80.2992 69° East 372 428 17,500 1,860 Climbing Atlanta Center
10:34PM 35.4628 -80.0217 71° East 400 460 21,400 1,740 Climbing Washington Center
10:35PM 35.4969 -79.8858 73° East 405 466 23,300 1,800 Climbing Washington Center
10:36PM 35.5353 -79.7422 72° East 415 478 25,000 1,560 Climbing Washington Center
10:37PM 35.5761 -79.5861 72° East 429 494 26,400 1,200 Climbing Washington Center
10:38PM 35.6389 -79.4564 59° Northeast 436 502 27,500 1,200 Climbing Washington Center
10:39PM 35.7217 -79.3453 47° Northeast 442 509 28,900 1,440 Climbing Washington Center
10:40PM 35.8044 -79.2314 48° Northeast 437 503 30,400 1,260 Climbing Washington Center
10:41PM 35.8850 -79.1197 48° Northeast 437 503 31,400 1,140 Climbing Washington Center
10:42PM 35.9675 -79.0053 48° Northeast 437 503 32,800 780 Climbing Washington Center
10:43PM 36.0500 -78.8933 48° Northeast 442 509 33,000 60 Climbing Washington Center
10:44PM 36.1261 -78.7858 49° Northeast 428 493 33,000  Level Washington Center
10:45PM 36.2061 -78.6758 48° Northeast 423 487 33,000  Level Washington Center
10:46PM 36.2819 -78.5656 50° Northeast 428 493 33,000  Level Washington Center
10:47PM 36.3619 -78.4525 49° Northeast 428 493 33,000  Level Washington Center
10:48PM 36.4394 -78.3417 49° Northeast 428 493 33,000  Level Washington Center
10:49PM 36.5172 -78.2333 48° Northeast 428 493 33,000  Level Washington Center
10:50PM 36.5947 -78.1194 50° Northeast 428 493 33,000  Level Washington Center
10:51PM 36.6722 -78.0056 50° Northeast 428 493 33,000  Level Washington Center
10:52PM 36.7494 -77.8939 49° Northeast 428 493 33,000  Level Washington Center
10:53PM 36.8289 -77.7794 49° Northeast 428 493 33,000  Level Washington Center
10:54PM 36.9058 -77.6697 49° Northeast 428 493 33,000  Level Washington Center
10:55PM 36.9828 -77.5550 50° Northeast 428 493 33,000  Level Washington Center
10:56PM 37.0597 -77.4425 49° Northeast 428 493 33,000  Level Washington Center
10:57PM 37.1386 -77.3269 49° Northeast 428 493 33,000  Level Washington Center
10:58PM 37.2175 -77.2142 49° Northeast 428 493 33,000  Level Washington Center
10:59PM 37.2856 -77.1083 51° Northeast 428 493 33,000  Level Washington Center
11:00PM 37.3747 -76.9822 48° Northeast 428 493 33,000  Level Washington Center
11:01PM 37.4425 -76.8789 50° Northeast 428 493 33,000  Level Washington Center
11:02PM 37.5253 -76.7569 49° Northeast 433 498 33,000  Level Washington Center
11:03PM 37.6014 -76.6431 50° Northeast 433 498 33,000  Level Washington Center
11:04PM 37.6878 -76.5128 50° Northeast 427 491 33,000  Level Washington Center
11:05PM 37.7658 -76.3956 50° Northeast 432 497 33,000  Level Washington Center
11:06PM 37.8439 -76.2781 50° Northeast 432 497 33,000  Level Washington Center
11:07PM 37.9217 -76.1631 49° Northeast 427 491 33,000  Level Washington Center
11:08PM 38.0014 -76.0422 50° Northeast 427 491 33,000  Level Washington Center
11:09PM 38.1017 -75.9586 33° Northeast 421 484 33,000  Level Washington Center
11:10PM 38.2042 -75.8772 32° Northeast 429 494 33,000  Level Washington Center
11:11PM 38.3064 -75.7875 35° Northeast 440 506 33,000  Level Washington Center
11:12PM 38.4067 -75.7189 28° Northeast 440 506 33,000  Level Washington Center
11:13PM 38.5067 -75.6289 35° Northeast 440 506 33,000  Level Washington Center
11:14PM 38.6111 -75.5439 32° Northeast 440 506 33,000  Level Washington Center
11:15PM 38.7131 -75.4614 32° Northeast 440 506 33,000  Level Washington Center
11:16PM 38.8192 -75.3731 33° Northeast 435 501 33,000  Level Washington Center
11:17PM 38.9233 -75.2875 33° Northeast 435 501 33,000  Level Washington Center
11:18PM 39.0294 -75.2014 32° Northeast 435 501 33,000  Level Washington Center
11:19PM 39.1333 -75.1153 33° Northeast 435 501 33,000  Level Washington Center
11:20PM 39.2350 -75.0236 35° Northeast 435 501 33,000  Level Washington Center
11:21PM 39.3386 -74.9367 33° Northeast 435 501 33,000  Level Washington Center
11:23PM 39.5219 -74.7864 32° Northeast 454 522 33,000  Level New York Center
11:24PM 39.6272 -74.6953 34° Northeast 454 522 33,000  Level New York Center
11:25PM 39.7344 -74.6042 33° Northeast 454 522 33,000  Level New York Center
11:26PM 39.8394 -74.5178 32° Northeast 454 522 33,000  Level New York Center
11:27PM 39.9444 -74.4206 35° Northeast 454 522 33,000  Level New York Center
11:28PM 40.0514 -74.3367 31° Northeast 454 522 33,000  Level New York Center
11:29PM 40.1733 -74.3050 11° North 439 505 33,000 -180 Level New York Center
11:30PM 40.2989 -74.2842 North 439 505 32,700 -660 Descending New York Center
11:31PM 40.4267 -74.2608 North 450 518 31,700 -900 Descending New York Center
11:33PM 40.6986 -74.2058 North 447 514 30,000 -540 Descending Boston Center
11:34PM 40.8383 -74.1850 North 453 521 30,000  Level Boston Center
11:35PM 40.9658 -74.1608 North 458 527 30,000  Level Boston Center
11:36PM 41.0933 -74.1339 North 458 527 30,000 -1,140 Level Boston Center
11:37PM 41.2147 -74.1122 North 452 520 27,800 -2,040 Descending Boston Center
11:38PM 41.3256 -74.0847 11° North 452 520 26,000 -960 Descending Boston Center
11:39PM 41.4489 -74.0603 North 446 513 26,000 -1,260 Level Boston Center
11:40PM 41.5889 -74.0333 North 452 520 23,500 -2,640 Descending Boston Center
11:41PM 41.7100 -74.0142 North 452 520 20,700 -3,060 Descending Boston Center
11:42PM 41.8250 -73.9892 North 426 490 17,400 -3,480 Descending Boston Center
11:43PM 41.9544 -73.9672 North 415 478 13,400 -3,360 Descending Boston Center
11:43PM 41.9628 -73.9644 14° North 415 478 13,300 -1,860 Descending Boston Center
11:44PM 42.0508 -73.9442 10° North 408 470 11,800 -2,100 Descending Boston Center
11:44PM 42.0717 -73.9392 10° North 398 458 11,200 -900 Descending Boston Center
11:45PM 42.1742 -73.9081 13° North 328 377 10,700 -1,200 Descending Boston Center
11:46PM 42.2389 -73.8869 14° North 339 390 9,100 -1,800 Descending Boston Center
11:46PM 42.2619 -73.8819 North 315 362 8,900 -900 Descending Boston Center
11:47PM 42.3228 -73.8636 13° North 302 348 8,200 -1,080 Descending Boston Center
11:47PM 42.3414 -73.8614 North 282 325 7,900 -1,920 Descending Boston Center
11:48PM 42.3958 -73.8431 14° North 280 322 6,300 -2,100 Descending Boston Center
11:48PM 42.4167 -73.8406 North 271 312 5,700 -1,560 Descending Boston Center
11:49PM 42.4733 -73.8194 15° North 274 315 4,700 -1,320 Descending Boston Center
11:49PM 42.4900 -73.8142 13° North 275 316 4,400 -1,320 Descending Boston Center
11:50PM 42.5361 -73.8011 12° North 274 315 3,500 -1,140 Descending Boston Center
11:50PM 42.5589 -73.7986 North 252 290 3,300 -600 Descending Boston Center
11:51PM 42.6047 -73.8025 356° North 247 284 2,900 -720 Descending Boston Center
11:51PM 42.6194 -73.8000 North 199 229 2,600 -540 Descending Boston Center
11:52PM 42.6633 -73.7925 North 229 264 2,400 -1,020 Descending Boston Center
11:52PM 42.6736 -73.8039 321° Northwest 176 203 1,600 -1,200 Descending Boston Center
11:53PM 42.7111 -73.8078 356° North 136 157 800 -840 Descending Boston Center